Flight Track Log - Related Links

Times and Time Zones

All times are in EDT time to prevent confusion due to time zone crossing. See the PDT4314 flight status page for this flight to view local times or setup timezone preferences in your user account.

Time Position Orientation Groundspeed Altitude Reporting Facility
EDT Latitude Longitude Course Direction KTS MPH feet Rate Location/Type
Wed 05:37:56 PM 39.8833 -75.2000 348° North 116 133 500  Level Philadelphia TRACON
Wed 05:39:02 PM 39.9167 -75.1667 37° Northeast 130 150 1,700 1,000 Climbing Philadelphia TRACON
Wed 05:40:00 PM 40.0698 -75.2833 North  Level FlightAware Approximate
Wed 05:40:02 PM 39.9500 -75.1500 21° North 182 209 2,600  Level Philadelphia TRACON
Wed 05:40:56 PM 40.0000 -75.1500 360° North 204 235 3,000 600 Climbing Philadelphia TRACON
Wed 05:41:00 PM 40.1392 -75.2945 348° North  Level FlightAware Approximate
Wed 05:42:00 PM 40.2079 -75.3141 348° North  Level FlightAware Approximate
Wed 05:42:02 PM 40.0667 -75.1833 339° North 217 250 3,800  Level Philadelphia TRACON
Wed 05:42:56 PM 40.1167 -75.2000 346° North 227 261 4,000 222 Climbing Philadelphia TRACON
Wed 05:43:00 PM 40.2766 -75.3337 348° North  Level FlightAware Approximate
Wed 05:44:00 PM 40.1859 -75.2379 337° Northwest  Level FlightAware Approximate
Wed 05:51:00 PM 40.6589 -75.4355 349° North  Level FlightAware Approximate
Wed 05:52:00 PM 40.7282 -75.4500 North  Level FlightAware Approximate
Wed 05:53:00 PM 40.7985 -75.4500 North  Level FlightAware Approximate
Wed 05:54:00 PM 40.8688 -75.4500 North  Level FlightAware Approximate
Wed 05:55:00 PM 40.9392 -75.4500 North  Level FlightAware Approximate
Wed 05:56:00 PM 41.0095 -75.4500 North  Level FlightAware Approximate
Wed 05:57:00 PM 41.0798 -75.4536 357° North  Level FlightAware Approximate
Wed 05:58:00 PM 41.1500 -75.4590 357° North  Level FlightAware Approximate
Wed 05:59:00 PM 41.2202 -75.4644 357° North  Level FlightAware Approximate
Wed 06:00:00 PM 41.2905 -75.4667 North  Level FlightAware Approximate
Wed 06:01:00 PM 41.3608 -75.4667 North  Level FlightAware Approximate
Wed 06:02:00 PM 41.4311 -75.4667 North  Level FlightAware Approximate
Wed 06:03:00 PM 41.4946 -75.4945 323° Northwest  Level FlightAware Approximate
Wed 06:04:00 PM 41.5509 -75.5507 323° Northwest  Level FlightAware Approximate
Wed 06:05:00 PM 41.6073 -75.6070 323° Northwest  Level FlightAware Approximate
Wed 06:06:00 PM 41.6636 -75.6634 323° Northwest  Level FlightAware Approximate
Wed 06:07:00 PM 41.7199 -75.7197 325° Northwest  Level FlightAware Approximate
Wed 06:08:00 PM 41.7776 -75.7737 325° Northwest  Level FlightAware Approximate
Wed 06:09:00 PM 41.8352 -75.8279 325° Northwest  Level FlightAware Approximate
Wed 06:10:00 PM 41.8928 -75.8821 325° Northwest  Level FlightAware Approximate
Wed 06:11:00 PM 41.9503 -75.9364 325° Northwest  Level FlightAware Approximate
Wed 06:12:00 PM 42.0077 -75.9911 323° Northwest  Level FlightAware Approximate
Wed 06:13:00 PM 42.0642 -76.0475 323° Northwest  Level FlightAware Approximate
Wed 06:14:00 PM 42.1207 -76.1040 323° Northwest  Level FlightAware Approximate
Wed 06:15:00 PM 42.1573 -76.0927 37° Northeast  Level FlightAware Approximate
Wed 06:16:00 PM 42.1946 -76.0136 62° Northeast  Level FlightAware Approximate
Wed 06:17:00 PM 42.2000 -75.9667 90° East  Level FlightAware Approximate
Wed 06:18:00 PM 42.2086 -75.9797 90° East  Level Estimated
Wed 06:19:00 PM 42.2086 -75.9797 90° East  Level Estimated
Wed 06:20:00 PM 42.2086 -75.9797 90° East  Level Estimated
Wed 06:21:00 PM 42.2086 -75.9797 90° East  Level Estimated
Wed 06:22:00 PM 42.2086 -75.9797 90° East  Level Estimated

Login

Don't have an account? Register now (free) for customized features, flight alerts, and more!